sensor_id;sensor_type;location;lat;lon;timestamp;pressure;altitude;pressure_sealevel;temperature;humidity
79577;BME280;69045;48.136;11.386;2023-07-20T00:00:18;95150.28;;;25.67;41.26
79577;BME280;69045;48.136;11.386;2023-07-20T00:02:50;95146.69;;;25.63;41.79
79577;BME280;69045;48.136;11.386;2023-07-20T00:05:18;95143.38;;;25.57;41.70
79577;BME280;69045;48.136;11.386;2023-07-20T00:07:49;95137.34;;;25.52;41.14
79577;BME280;69045;48.136;11.386;2023-07-20T00:10:19;95143.84;;;25.51;41.70
79577;BME280;69045;48.136;11.386;2023-07-20T00:12:47;95141.78;;;25.48;41.56
79577;BME280;69045;48.136;11.386;2023-07-20T00:15:15;95141.94;;;25.43;41.87
79577;BME280;69045;48.136;11.386;2023-07-20T00:17:43;95144.94;;;25.41;42.29
79577;BME280;69045;48.136;11.386;2023-07-20T00:20:11;95134.50;;;25.40;42.34
79577;BME280;69045;48.136;11.386;2023-07-20T00:22:39;95138.94;;;25.36;42.37
79577;BME280;69045;48.136;11.386;2023-07-20T00:25:09;95141.63;;;25.36;42.19
79577;BME280;69045;48.136;11.386;2023-07-20T00:27:38;95145.41;;;25.35;42.33
79577;BME280;69045;48.136;11.386;2023-07-20T00:30:07;95153.75;;;25.33;42.17
79577;BME280;69045;48.136;11.386;2023-07-20T00:32:35;95156.75;;;25.31;42.23
79577;BME280;69045;48.136;11.386;2023-07-20T00:35:04;95148.25;;;25.29;42.41
79577;BME280;69045;48.136;11.386;2023-07-20T00:37:32;95146.16;;;25.26;42.61
79577;BME280;69045;48.136;11.386;2023-07-20T00:40:00;95142.22;;;25.24;42.36
79577;BME280;69045;48.136;11.386;2023-07-20T00:42:32;95154.06;;;25.23;42.65
79577;BME280;69045;48.136;11.386;2023-07-20T00:45:02;95155.97;;;25.22;42.93
79577;BME280;69045;48.136;11.386;2023-07-20T00:47:30;95157.84;;;25.22;42.73
79577;BME280;69045;48.136;11.386;2023-07-20T00:49:58;95162.72;;;25.20;42.49
79577;BME280;69045;48.136;11.386;2023-07-20T00:52:28;95167.63;;;25.18;42.55
79577;BME280;69045;48.136;11.386;2023-07-20T00:54:56;95164.47;;;25.16;42.63
79577;BME280;69045;48.136;11.386;2023-07-20T00:57:24;95157.22;;;25.16;42.49
79577;BME280;69045;48.136;11.386;2023-07-20T00:59:54;95160.53;;;25.13;43.14
79577;BME280;69045;48.136;11.386;2023-07-20T01:02:23;95158.94;;;25.12;42.61
79577;BME280;69045;48.136;11.386;2023-07-20T01:04:51;95160.22;;;25.15;42.48
79577;BME280;69045;48.136;11.386;2023-07-20T01:07:26;95161.94;;;25.11;42.90
79577;BME280;69045;48.136;11.386;2023-07-20T01:10:03;95158.78;;;25.09;42.53
79577;BME280;69045;48.136;11.386;2023-07-20T01:12:41;95158.59;;;25.05;42.55
79577;BME280;69045;48.136;11.386;2023-07-20T01:15:11;95152.56;;;24.99;43.01
79577;BME280;69045;48.136;11.386;2023-07-20T01:17:40;95147.50;;;24.98;42.92
79577;BME280;69045;48.136;11.386;2023-07-20T01:20:12;95152.09;;;24.97;43.32
79577;BME280;69045;48.136;11.386;2023-07-20T01:22:57;95147.34;;;24.94;42.94
79577;BME280;69045;48.136;11.386;2023-07-20T01:25:44;95155.72;;;24.93;43.32
79577;BME280;69045;48.136;11.386;2023-07-20T01:28:40;95150.97;;;24.90;43.18
79577;BME280;69045;48.136;11.386;2023-07-20T01:31:24;95144.03;;;24.89;43.22
79577;BME280;69045;48.136;11.386;2023-07-20T01:33:55;95152.38;;;24.87;43.53
79577;BME280;69045;48.136;11.386;2023-07-20T01:36:26;95154.56;;;24.85;43.18
79577;BME280;69045;48.136;11.386;2023-07-20T01:38:56;95156.78;;;24.83;43.34
79577;BME280;69045;48.136;11.386;2023-07-20T01:41:24;95153.13;;;24.79;43.19
79577;BME280;69045;48.136;11.386;2023-07-20T01:43:53;95160.22;;;24.75;43.33
79577;BME280;69045;48.136;11.386;2023-07-20T01:46:22;95152.00;;;24.71;43.36
79577;BME280;69045;48.136;11.386;2023-07-20T01:48:51;95152.63;;;24.68;43.11
79577;BME280;69045;48.136;11.386;2023-07-20T01:51:19;95157.22;;;24.68;43.22
79577;BME280;69045;48.136;11.386;2023-07-20T01:53:48;95156.09;;;24.69;43.58
79577;BME280;69045;48.136;11.386;2023-07-20T01:56:16;95154.53;;;24.68;43.04
79577;BME280;69045;48.136;11.386;2023-07-20T01:58:44;95158.13;;;24.63;42.93
79577;BME280;69045;48.136;11.386;2023-07-20T02:01:12;95164.91;;;24.61;43.17
79577;BME280;69045;48.136;11.386;2023-07-20T02:03:41;95162.53;;;24.59;42.96
79577;BME280;69045;48.136;11.386;2023-07-20T02:06:09;95162.81;;;24.58;43.21
79577;BME280;69045;48.136;11.386;2023-07-20T02:08:37;95165.50;;;24.58;43.32
79577;BME280;69045;48.136;11.386;2023-07-20T02:11:06;95154.78;;;24.58;43.11
79577;BME280;69045;48.136;11.386;2023-07-20T02:13:34;95163.44;;;24.55;43.18
79577;BME280;69045;48.136;11.386;2023-07-20T02:16:02;95169.13;;;24.53;43.13
79577;BME280;69045;48.136;11.386;2023-07-20T02:18:30;95161.09;;;24.53;42.90
79577;BME280;69045;48.136;11.386;2023-07-20T02:21:00;95171.31;;;24.51;42.94
79577;BME280;69045;48.136;11.386;2023-07-20T02:23:28;95165.66;;;24.53;42.82
79577;BME280;69045;48.136;11.386;2023-07-20T02:25:56;95163.44;;;24.55;42.69
79577;BME280;69045;48.136;11.386;2023-07-20T02:28:24;95163.44;;;24.55;42.56
79577;BME280;69045;48.136;11.386;2023-07-20T02:30:52;95154.00;;;24.57;42.14
79577;BME280;69045;48.136;11.386;2023-07-20T02:33:20;95162.97;;;24.53;42.13
79577;BME280;69045;48.136;11.386;2023-07-20T02:35:48;95172.88;;;24.52;41.88
79577;BME280;69045;48.136;11.386;2023-07-20T02:38:19;95163.25;;;24.51;42.06
79577;BME280;69045;48.136;11.386;2023-07-20T02:40:47;95169.91;;;24.54;42.14
79577;BME280;69045;48.136;11.386;2023-07-20T02:43:15;95175.28;;;24.54;42.03
79577;BME280;69045;48.136;11.386;2023-07-20T02:45:45;95184.88;;;24.55;42.25
79577;BME280;69045;48.136;11.386;2023-07-20T02:48:13;95186.28;;;24.52;41.89
79577;BME280;69045;48.136;11.386;2023-07-20T02:50:43;95176.97;;;24.49;42.60
79577;BME280;69045;48.136;11.386;2023-07-20T02:53:11;95184.19;;;24.40;44.14
79577;BME280;69045;48.136;11.386;2023-07-20T02:55:41;95184.41;;;24.30;44.98
79577;BME280;69045;48.136;11.386;2023-07-20T02:58:09;95186.72;;;24.23;45.12
79577;BME280;69045;48.136;11.386;2023-07-20T03:00:37;95190.78;;;24.12;45.76
79577;BME280;69045;48.136;11.386;2023-07-20T03:03:05;95188.31;;;24.02;46.04
79577;BME280;69045;48.136;11.386;2023-07-20T03:05:36;95183.72;;;23.93;46.54
79577;BME280;69045;48.136;11.386;2023-07-20T03:08:07;95188.38;;;23.88;46.97
79577;BME280;69045;48.136;11.386;2023-07-20T03:10:40;95200.19;;;23.87;46.45
79577;BME280;69045;48.136;11.386;2023-07-20T03:13:08;95198.41;;;23.82;46.98
79577;BME280;69045;48.136;11.386;2023-07-20T03:15:37;95209.72;;;23.79;47.14
79577;BME280;69045;48.136;11.386;2023-07-20T03:18:05;95216.47;;;23.77;47.38
79577;BME280;69045;48.136;11.386;2023-07-20T03:20:35;95207.47;;;23.73;47.36
79577;BME280;69045;48.136;11.386;2023-07-20T03:23:04;95207.69;;;23.62;50.25
79577;BME280;69045;48.136;11.386;2023-07-20T03:25:32;95200.19;;;23.37;52.26
79577;BME280;69045;48.136;11.386;2023-07-20T03:28:05;95204.75;;;23.23;53.09
79577;BME280;69045;48.136;11.386;2023-07-20T03:30:35;95210.41;;;23.07;53.76
79577;BME280;69045;48.136;11.386;2023-07-20T03:33:03;95217.75;;;23.02;53.61
79577;BME280;69045;48.136;11.386;2023-07-20T03:35:31;95221.13;;;22.94;53.87
79577;BME280;69045;48.136;11.386;2023-07-20T03:38:00;95220.78;;;22.81;54.75
79577;BME280;69045;48.136;11.386;2023-07-20T03:40:28;95226.72;;;22.78;54.73
79577;BME280;69045;48.136;11.386;2023-07-20T03:42:56;95218.63;;;22.70;55.07
79577;BME280;69045;48.136;11.386;2023-07-20T03:45:25;95227.19;;;22.67;55.16
79577;BME280;69045;48.136;11.386;2023-07-20T03:47:53;95224.81;;;22.65;55.32
79577;BME280;69045;48.136;11.386;2023-07-20T03:50:22;95224.03;;;22.65;55.59
79577;BME280;69045;48.136;11.386;2023-07-20T03:52:50;95220.66;;;22.59;55.73
79577;BME280;69045;48.136;11.386;2023-07-20T03:55:19;95228.97;;;22.57;55.79
79577;BME280;69045;48.136;11.386;2023-07-20T03:57:47;95236.47;;;22.55;55.93
79577;BME280;69045;48.136;11.386;2023-07-20T04:00:18;95229.94;;;22.48;56.02
79577;BME280;69045;48.136;11.386;2023-07-20T04:02:47;95228.16;;;22.43;56.10
79577;BME280;69045;48.136;11.386;2023-07-20T04:05:15;95222.59;;;22.40;56.34
79577;BME280;69045;48.136;11.386;2023-07-20T04:07:43;95218.34;;;22.39;56.68
79577;BME280;69045;48.136;11.386;2023-07-20T04:10:11;95218.34;;;22.39;56.31
79577;BME280;69045;48.136;11.386;2023-07-20T04:12:39;95228.44;;;22.42;56.45
79577;BME280;69045;48.136;11.386;2023-07-20T04:15:08;95230.53;;;22.45;56.67
79577;BME280;69045;48.136;11.386;2023-07-20T04:17:36;95234.00;;;22.45;56.75
79577;BME280;69045;48.136;11.386;2023-07-20T04:20:07;95229.94;;;22.48;56.63
79577;BME280;69045;48.136;11.386;2023-07-20T04:22:36;95234.09;;;22.54;56.62
79577;BME280;69045;48.136;11.386;2023-07-20T04:25:07;95239.44;;;22.54;56.24
79577;BME280;69045;48.136;11.386;2023-07-20T04:27:36;95239.75;;;22.52;55.89
79577;BME280;69045;48.136;11.386;2023-07-20T04:30:07;95243.19;;;22.53;55.95
79577;BME280;69045;48.136;11.386;2023-07-20T04:32:35;95238.47;;;22.50;55.85
79577;BME280;69045;48.136;11.386;2023-07-20T04:35:06;95245.94;;;22.48;55.92
79577;BME280;69045;48.136;11.386;2023-07-20T04:37:37;95242.72;;;22.51;56.02
79577;BME280;69045;48.136;11.386;2023-07-20T04:40:16;95240.53;;;22.53;55.92
79577;BME280;69045;48.136;11.386;2023-07-20T04:42:44;95245.28;;;22.56;55.44
79577;BME280;69045;48.136;11.386;2023-07-20T04:45:12;95253.50;;;22.59;55.58
79577;BME280;69045;48.136;11.386;2023-07-20T04:47:40;95247.38;;;22.59;55.55
79577;BME280;69045;48.136;11.386;2023-07-20T04:50:10;95256.16;;;22.59;55.82
79577;BME280;69045;48.136;11.386;2023-07-20T04:52:38;95262.31;;;22.60;55.71
79577;BME280;69045;48.136;11.386;2023-07-20T04:55:13;95254.88;;;22.57;55.43
79577;BME280;69045;48.136;11.386;2023-07-20T04:57:41;95263.38;;;22.59;55.14
79577;BME280;69045;48.136;11.386;2023-07-20T05:00:10;95266.28;;;22.63;54.13
79577;BME280;69045;48.136;11.386;2023-07-20T05:02:40;95267.56;;;22.65;53.72
79577;BME280;69045;48.136;11.386;2023-07-20T05:05:09;95264.88;;;22.65;52.85
79577;BME280;69045;48.136;11.386;2023-07-20T05:07:37;95263.31;;;22.64;52.12
79577;BME280;69045;48.136;11.386;2023-07-20T05:10:07;95255.78;;;22.66;51.40
79577;BME280;69045;48.136;11.386;2023-07-20T05:12:35;95263.41;;;22.73;50.31
79577;BME280;69045;48.136;11.386;2023-07-20T05:15:04;95258.78;;;22.78;49.35
79577;BME280;69045;48.136;11.386;2023-07-20T05:17:32;95257.69;;;22.79;49.07
79577;BME280;69045;48.136;11.386;2023-07-20T05:20:01;95258.41;;;22.85;48.41
79577;BME280;69045;48.136;11.386;2023-07-20T05:22:32;95254.34;;;22.87;47.84
79577;BME280;69045;48.136;11.386;2023-07-20T05:25:00;95259.00;;;22.96;47.47
79577;BME280;69045;48.136;11.386;2023-07-20T05:27:28;95251.22;;;22.99;45.76
79577;BME280;69045;48.136;11.386;2023-07-20T05:29:56;95259.94;;;23.05;46.34
79577;BME280;69045;48.136;11.386;2023-07-20T05:32:24;95268.44;;;23.07;46.35
79577;BME280;69045;48.136;11.386;2023-07-20T05:34:53;95264.09;;;23.11;46.32
79577;BME280;69045;48.136;11.386;2023-07-20T05:37:21;95264.66;;;23.22;45.31
79577;BME280;69045;48.136;11.386;2023-07-20T05:39:51;95261.50;;;23.33;45.07
79577;BME280;69045;48.136;11.386;2023-07-20T05:42:19;95265.66;;;23.39;45.13
79577;BME280;69045;48.136;11.386;2023-07-20T05:44:47;95253.66;;;23.37;45.09
79577;BME280;69045;48.136;11.386;2023-07-20T05:47:16;95258.31;;;23.45;44.95
79577;BME280;69045;48.136;11.386;2023-07-20T05:49:44;95259.19;;;23.54;44.47
79577;BME280;69045;48.136;11.386;2023-07-20T05:52:13;95262.88;;;23.58;44.37
79577;BME280;69045;48.136;11.386;2023-07-20T05:54:41;95267.84;;;23.65;44.00
79577;BME280;69045;48.136;11.386;2023-07-20T05:57:10;95271.38;;;23.74;43.53
79577;BME280;69045;48.136;11.386;2023-07-20T05:59:38;95270.34;;;23.84;42.92
79577;BME280;69045;48.136;11.386;2023-07-20T06:02:07;95276.38;;;23.89;42.75
79577;BME280;69045;48.136;11.386;2023-07-20T06:04:36;95266.34;;;23.95;42.27
79577;BME280;69045;48.136;11.386;2023-07-20T06:07:04;95273.06;;;24.06;42.04
79577;BME280;69045;48.136;11.386;2023-07-20T06:09:32;95274.97;;;24.06;42.44
79577;BME280;69045;48.136;11.386;2023-07-20T06:12:00;95274.22;;;24.14;42.00
79577;BME280;69045;48.136;11.386;2023-07-20T06:14:29;95277.38;;;24.16;41.77
79577;BME280;69045;48.136;11.386;2023-07-20T06:16:57;95282.16;;;24.19;41.11
79577;BME280;69045;48.136;11.386;2023-07-20T06:19:25;95283.09;;;24.23;41.71
79577;BME280;69045;48.136;11.386;2023-07-20T06:21:53;95280.13;;;24.24;41.42
79577;BME280;69045;48.136;11.386;2023-07-20T06:24:21;95280.94;;;24.25;41.90
79577;BME280;69045;48.136;11.386;2023-07-20T06:26:49;95277.94;;;24.27;41.94
79577;BME280;69045;48.136;11.386;2023-07-20T06:29:17;95269.78;;;24.32;41.72
79577;BME280;69045;48.136;11.386;2023-07-20T06:31:48;95271.47;;;24.41;41.59
79577;BME280;69045;48.136;11.386;2023-07-20T06:34:16;95277.34;;;24.52;41.70
79577;BME280;69045;48.136;11.386;2023-07-20T06:36:46;95274.88;;;24.56;41.30
79577;BME280;69045;48.136;11.386;2023-07-20T06:39:14;95269.94;;;24.49;41.61
79577;BME280;69045;48.136;11.386;2023-07-20T06:41:45;95266.63;;;24.52;41.64
79577;BME280;69045;48.136;11.386;2023-07-20T06:44:13;95276.13;;;24.58;41.42
79577;BME280;69045;48.136;11.386;2023-07-20T06:46:41;95269.13;;;24.71;40.43
79577;BME280;69045;48.136;11.386;2023-07-20T06:49:24;95272.94;;;24.78;40.90
79577;BME280;69045;48.136;11.386;2023-07-20T06:51:52;95268.75;;;24.86;40.79
79577;BME280;69045;48.136;11.386;2023-07-20T06:54:20;95269.69;;;24.90;40.48
79577;BME280;69045;48.136;11.386;2023-07-20T06:56:49;95272.31;;;25.04;40.81
79577;BME280;69045;48.136;11.386;2023-07-20T06:59:20;95272.97;;;25.18;39.89
79577;BME280;69045;48.136;11.386;2023-07-20T07:01:49;95277.00;;;25.38;40.72
79577;BME280;69045;48.136;11.386;2023-07-20T07:04:19;95267.91;;;25.65;40.42
79577;BME280;69045;48.136;11.386;2023-07-20T07:06:47;95272.22;;;25.92;38.28
79577;BME280;69045;48.136;11.386;2023-07-20T07:09:15;95261.19;;;26.20;39.18
79577;BME280;69045;48.136;11.386;2023-07-20T07:11:43;95267.00;;;26.65;37.06
79577;BME280;69045;48.136;11.386;2023-07-20T07:14:12;95267.06;;;26.94;37.72
79577;BME280;69045;48.136;11.386;2023-07-20T07:16:40;95261.38;;;27.05;36.39
79577;BME280;69045;48.136;11.386;2023-07-20T07:19:08;95263.75;;;26.98;35.97
79577;BME280;69045;48.136;11.386;2023-07-20T07:21:38;95264.69;;;26.93;37.35
79577;BME280;69045;48.136;11.386;2023-07-20T07:24:06;95264.38;;;26.94;36.82
79577;BME280;69045;48.136;11.386;2023-07-20T07:26:34;95271.63;;;27.03;35.92
79577;BME280;69045;48.136;11.386;2023-07-20T07:29:02;95271.94;;;27.01;35.92
79577;BME280;69045;48.136;11.386;2023-07-20T07:31:33;95265.94;;;26.95;35.17
79577;BME280;69045;48.136;11.386;2023-07-20T07:34:02;95269.34;;;26.84;36.50
79577;BME280;69045;48.136;11.386;2023-07-20T07:36:31;95276.59;;;26.83;35.74
79577;BME280;69045;48.136;11.386;2023-07-20T07:39:03;95274.13;;;26.70;36.73
79577;BME280;69045;48.136;11.386;2023-07-20T07:41:34;95274.31;;;26.56;36.43
79577;BME280;69045;48.136;11.386;2023-07-20T07:44:02;95268.47;;;26.45;36.98
79577;BME280;69045;48.136;11.386;2023-07-20T07:46:33;95276.06;;;26.43;37.40
79577;BME280;69045;48.136;11.386;2023-07-20T07:49:01;95275.72;;;26.36;36.90
79577;BME280;69045;48.136;11.386;2023-07-20T07:51:29;95266.56;;;26.20;36.88
79577;BME280;69045;48.136;11.386;2023-07-20T07:53:57;95268.13;;;26.21;38.28
79577;BME280;69045;48.136;11.386;2023-07-20T07:56:27;95267.03;;;26.30;37.94
79577;BME280;69045;48.136;11.386;2023-07-20T07:58:55;95278.88;;;26.47;38.35
79577;BME280;69045;48.136;11.386;2023-07-20T08:01:28;95287.06;;;26.67;38.21
79577;BME280;69045;48.136;11.386;2023-07-20T08:03:58;95282.13;;;26.87;37.25
79577;BME280;69045;48.136;11.386;2023-07-20T08:06:26;95279.09;;;27.06;37.44
79577;BME280;69045;48.136;11.386;2023-07-20T08:08:54;95282.03;;;27.21;35.71
79577;BME280;69045;48.136;11.386;2023-07-20T08:11:23;95279.53;;;27.46;35.83
79577;BME280;69045;48.136;11.386;2023-07-20T08:13:52;95278.06;;;27.57;35.10
79577;BME280;69045;48.136;11.386;2023-07-20T08:16:21;95280.88;;;27.61;34.74
79577;BME280;69045;48.136;11.386;2023-07-20T08:18:50;95285.16;;;27.62;34.22
79577;BME280;69045;48.136;11.386;2023-07-20T08:21:19;95285.13;;;27.70;33.75
79577;BME280;69045;48.136;11.386;2023-07-20T08:23:47;95281.19;;;27.68;33.56
79577;BME280;69045;48.136;11.386;2023-07-20T08:26:16;95281.03;;;27.64;34.00
79577;BME280;69045;48.136;11.386;2023-07-20T08:28:51;95287.03;;;27.70;33.16
79577;BME280;69045;48.136;11.386;2023-07-20T08:31:19;95277.13;;;27.83;33.25
79577;BME280;69045;48.136;11.386;2023-07-20T08:33:47;95287.97;;;27.95;33.22
79577;BME280;69045;48.136;11.386;2023-07-20T08:36:16;95282.25;;;27.96;32.62
79577;BME280;69045;48.136;11.386;2023-07-20T08:38:44;95282.00;;;27.89;33.21
79577;BME280;69045;48.136;11.386;2023-07-20T08:41:12;95288.84;;;27.87;32.89
79577;BME280;69045;48.136;11.386;2023-07-20T08:43:42;95290.28;;;27.84;33.56
79577;BME280;69045;48.136;11.386;2023-07-20T08:46:12;95287.00;;;27.79;33.12
79577;BME280;69045;48.136;11.386;2023-07-20T08:48:46;95288.91;;;27.78;33.34
79577;BME280;69045;48.136;11.386;2023-07-20T08:51:15;95294.13;;;27.74;33.22
79577;BME280;69045;48.136;11.386;2023-07-20T08:53:45;95286.84;;;27.75;33.29
79577;BME280;69045;48.136;11.386;2023-07-20T08:56:18;95280.22;;;27.72;32.71
79577;BME280;69045;48.136;11.386;2023-07-20T08:58:48;95282.72;;;27.78;32.90
79577;BME280;69045;48.136;11.386;2023-07-20T09:01:19;95280.56;;;27.71;33.53
79577;BME280;69045;48.136;11.386;2023-07-20T09:03:47;95273.91;;;27.68;34.06
79577;BME280;69045;48.136;11.386;2023-07-20T09:06:16;95275.66;;;27.64;33.80
79577;BME280;69045;48.136;11.386;2023-07-20T09:08:45;95277.59;;;27.55;33.63
79577;BME280;69045;48.136;11.386;2023-07-20T09:11:14;95273.31;;;27.54;34.95
79577;BME280;69045;48.136;11.386;2023-07-20T09:13:42;95265.91;;;27.81;34.61
79577;BME280;69045;48.136;11.386;2023-07-20T09:16:13;95265.03;;;28.10;32.95
79577;BME280;69045;48.136;11.386;2023-07-20T09:18:43;95260.59;;;28.35;33.30
79577;BME280;69045;48.136;11.386;2023-07-20T09:21:12;95263.69;;;28.58;33.37
79577;BME280;69045;48.136;11.386;2023-07-20T09:23:44;95270.50;;;28.76;32.69
79577;BME280;69045;48.136;11.386;2023-07-20T09:26:14;95256.47;;;28.82;32.43
79577;BME280;69045;48.136;11.386;2023-07-20T09:28:44;95259.94;;;28.83;33.20
79577;BME280;69045;48.136;11.386;2023-07-20T09:31:16;95261.16;;;29.06;32.80
79577;BME280;69045;48.136;11.386;2023-07-20T09:33:48;95257.59;;;28.81;31.86
79577;BME280;69045;48.136;11.386;2023-07-20T09:36:20;95260.94;;;29.36;32.55
79577;BME280;69045;48.136;11.386;2023-07-20T09:39:08;95259.28;;;29.56;31.88
79577;BME280;69045;48.136;11.386;2023-07-20T09:41:40;95260.16;;;29.60;32.36
79577;BME280;69045;48.136;11.386;2023-07-20T09:44:14;95252.03;;;29.84;32.46
79577;BME280;69045;48.136;11.386;2023-07-20T09:46:46;95256.03;;;30.15;30.70
79577;BME280;69045;48.136;11.386;2023-07-20T09:49:18;95254.03;;;30.28;29.58
79577;BME280;69045;48.136;11.386;2023-07-20T09:51:49;95254.50;;;30.30;29.42
79577;BME280;69045;48.136;11.386;2023-07-20T09:54:21;95242.53;;;30.15;29.99
79577;BME280;69045;48.136;11.386;2023-07-20T09:56:50;95240.28;;;30.33;30.67
79577;BME280;69045;48.136;11.386;2023-07-20T09:59:19;95246.81;;;30.60;31.73
79577;BME280;69045;48.136;11.386;2023-07-20T10:01:49;95243.22;;;30.99;31.08
79577;BME280;69045;48.136;11.386;2023-07-20T10:04:22;95256.44;;;31.17;29.59
79577;BME280;69045;48.136;11.386;2023-07-20T10:06:54;95254.75;;;30.96;30.16
79577;BME280;69045;48.136;11.386;2023-07-20T10:09:24;95257.97;;;30.86;30.28
79577;BME280;69045;48.136;11.386;2023-07-20T10:11:57;95254.53;;;30.74;28.90
79577;BME280;69045;48.136;11.386;2023-07-20T10:14:51;95244.28;;;30.51;30.01
79577;BME280;69045;48.136;11.386;2023-07-20T10:17:21;95252.81;;;30.25;30.83
79577;BME280;69045;48.136;11.386;2023-07-20T10:19:56;95248.38;;;30.05;30.21
79577;BME280;69045;48.136;11.386;2023-07-20T10:22:31;95242.56;;;29.78;30.66
79577;BME280;69045;48.136;11.386;2023-07-20T10:25:09;95242.47;;;29.75;31.27
79577;BME280;69045;48.136;11.386;2023-07-20T10:27:38;95235.38;;;29.82;31.29
79577;BME280;69045;48.136;11.386;2023-07-20T10:30:07;95236.56;;;29.97;30.63
79577;BME280;69045;48.136;11.386;2023-07-20T10:32:36;95233.50;;;30.11;30.12
79577;BME280;69045;48.136;11.386;2023-07-20T10:35:14;95233.16;;;30.12;30.31
79577;BME280;69045;48.136;11.386;2023-07-20T10:37:46;95232.28;;;30.36;29.47
79577;BME280;69045;48.136;11.386;2023-07-20T10:40:25;95230.69;;;30.63;30.21
79577;BME280;69045;48.136;11.386;2023-07-20T10:42:58;95228.28;;;30.74;28.86
79577;BME280;69045;48.136;11.386;2023-07-20T10:45:41;95231.09;;;30.50;29.24
79577;BME280;69045;48.136;11.386;2023-07-20T10:48:16;95235.78;;;30.37;29.08
79577;BME280;69045;48.136;11.386;2023-07-20T10:51:13;95234.06;;;30.16;30.17
79577;BME280;69045;48.136;11.386;2023-07-20T10:53:42;95236.41;;;30.18;29.92
79577;BME280;69045;48.136;11.386;2023-07-20T10:56:12;95222.56;;;30.07;29.22
79577;BME280;69045;48.136;11.386;2023-07-20T10:58:41;95220.00;;;29.99;29.99
79577;BME280;69045;48.136;11.386;2023-07-20T11:01:14;95214.59;;;30.11;30.98
79577;BME280;69045;48.136;11.386;2023-07-20T11:03:48;95210.94;;;30.47;30.26
79577;BME280;69045;48.136;11.386;2023-07-20T11:06:32;95216.59;;;30.70;29.59
79577;BME280;69045;48.136;11.386;2023-07-20T11:09:09;95216.59;;;31.02;29.30
79577;BME280;69045;48.136;11.386;2023-07-20T11:11:43;95210.91;;;31.22;29.22
79577;BME280;69045;48.136;11.386;2023-07-20T11:14:21;95215.50;;;31.53;29.35
79577;BME280;69045;48.136;11.386;2023-07-20T11:16:50;95212.81;;;31.53;29.31
79577;BME280;69045;48.136;11.386;2023-07-20T11:19:20;95207.84;;;31.40;28.04
79577;BME280;69045;48.136;11.386;2023-07-20T11:21:56;95209.69;;;31.20;28.64
79577;BME280;69045;48.136;11.386;2023-07-20T11:24:27;95212.31;;;31.01;28.42
79577;BME280;69045;48.136;11.386;2023-07-20T11:26:56;95213.53;;;30.71;28.67
79577;BME280;69045;48.136;11.386;2023-07-20T11:29:26;95206.22;;;30.44;29.45
79577;BME280;69045;48.136;11.386;2023-07-20T11:32:00;95211.69;;;30.32;30.13
79577;BME280;69045;48.136;11.386;2023-07-20T11:34:33;95200.16;;;30.07;30.25
79577;BME280;69045;48.136;11.386;2023-07-20T11:37:05;95211.81;;;29.95;30.22
79577;BME280;69045;48.136;11.386;2023-07-20T11:39:36;95207.31;;;29.87;30.49
79577;BME280;69045;48.136;11.386;2023-07-20T11:42:05;95201.31;;;29.94;30.56
79577;BME280;69045;48.136;11.386;2023-07-20T11:44:34;95193.22;;;29.94;31.09
79577;BME280;69045;48.136;11.386;2023-07-20T11:47:04;95190.03;;;30.04;30.00
79577;BME280;69045;48.136;11.386;2023-07-20T11:49:40;95186.53;;;30.15;30.49
79577;BME280;69045;48.136;11.386;2023-07-20T11:52:13;95176.63;;;30.07;30.57
79577;BME280;69045;48.136;11.386;2023-07-20T11:54:43;95174.84;;;30.11;30.87
79577;BME280;69045;48.136;11.386;2023-07-20T11:57:16;95180.97;;;30.24;30.56
79577;BME280;69045;48.136;11.386;2023-07-20T11:59:52;95185.34;;;30.29;29.93
79577;BME280;69045;48.136;11.386;2023-07-20T12:02:21;95187.19;;;30.40;30.44
79577;BME280;69045;48.136;11.386;2023-07-20T12:04:50;95182.91;;;30.39;29.52
79577;BME280;69045;48.136;11.386;2023-07-20T12:07:21;95173.66;;;30.40;29.82
79577;BME280;69045;48.136;11.386;2023-07-20T12:10:03;95173.44;;;30.45;30.33
79577;BME280;69045;48.136;11.386;2023-07-20T12:12:32;95167.22;;;30.61;30.74
79577;BME280;69045;48.136;11.386;2023-07-20T12:15:17;95170.28;;;30.59;30.28
79577;BME280;69045;48.136;11.386;2023-07-20T12:17:46;95169.09;;;30.57;29.00
79577;BME280;69045;48.136;11.386;2023-07-20T12:20:26;95160.63;;;30.42;29.40
79577;BME280;69045;48.136;11.386;2023-07-20T12:22:59;95156.41;;;30.45;30.23
79577;BME280;69045;48.136;11.386;2023-07-20T12:25:37;95148.66;;;30.59;30.33
79577;BME280;69045;48.136;11.386;2023-07-20T12:28:08;95158.44;;;30.64;29.96
79577;BME280;69045;48.136;11.386;2023-07-20T12:30:39;95150.53;;;30.71;30.69
79577;BME280;69045;48.136;11.386;2023-07-20T12:33:07;95148.94;;;30.86;29.90
79577;BME280;69045;48.136;11.386;2023-07-20T12:35:36;95145.19;;;30.90;29.32
79577;BME280;69045;48.136;11.386;2023-07-20T12:38:06;95136.09;;;30.98;30.31
79577;BME280;69045;48.136;11.386;2023-07-20T12:40:34;95141.53;;;30.98;28.62
79577;BME280;69045;48.136;11.386;2023-07-20T12:43:02;95137.94;;;30.94;29.69
79577;BME280;69045;48.136;11.386;2023-07-20T12:45:31;95128.78;;;30.99;29.59
79577;BME280;69045;48.136;11.386;2023-07-20T12:48:00;95132.44;;;30.91;29.93
79577;BME280;69045;48.136;11.386;2023-07-20T12:50:28;95138.03;;;30.98;29.79
79577;BME280;69045;48.136;11.386;2023-07-20T12:52:56;95130.88;;;30.90;29.61
79577;BME280;69045;48.136;11.386;2023-07-20T12:55:26;95127.41;;;30.89;29.46
79577;BME280;69045;48.136;11.386;2023-07-20T12:57:54;95121.69;;;30.94;30.34
79577;BME280;69045;48.136;11.386;2023-07-20T13:00:22;95119.59;;;31.04;30.30
79577;BME280;69045;48.136;11.386;2023-07-20T13:02:51;95112.16;;;31.16;29.05
79577;BME280;69045;48.136;11.386;2023-07-20T13:05:35;95109.34;;;31.13;28.85